Página principal
METAR-TAF:

METAR-TAF

Aeroportos :

Aeroporto Internacional de Nadi

Nadi, Fiji

latitude: 17-45S, longitude: 177-27E, altura: 13 m

Observação actual do tempo

O boletim foi feito há 50 minutos, às 15:00 UTC
Vento 6 kt de es-sudeste
Temperatura 23°C
Humidade 78%
Pressão 1011 hPa
Visibilidade 10 km ou mais
Poucas nuvensa uma altura de 3000 ft
Nuvens fragmentadasa uma altura de 12000 ft

METAR: NFFN 231500Z 12006KT 9999 FEW030 BKN120 23/19 Q1011 NOSIG

Hora: 03:50 (15:50 UTC)

Previsão

O boletim foi feito há 4 horas e 44 minutos, às 11:06 UTC
Previsão válida de 23 às 12 UTC a 24 às 12 UTC
Vento 5 kt de sudeste
Visibilidade 10 km ou mais
Nuvens dispersasa uma altura de 3000 ft

TAF: NFFN 231106Z 2312/2412 13005KT 9999 SCT030

Observações e previsões do tempo de mais de 4000 aeroportos (mensagens METAR e TAF).

As estações disponíveis são os pontos amarelos e vermelhos sobre o mapa.

Mova o rato sobre o mapa para ver o nome da estação.

Depois clique no ponto para visualizar as observações e previsões meteorológicas.

Para alterar o mapa : clique nos botões verdes com uma cruz preta para aumentar o zoom; no botão verde com uma pitada de zoom; ou nas setas verdes para mapas adjacentes.


METAR-TAF: